createdAt,value
2022-08-22T00:00:59.445Z,79.72
2022-08-22T00:02:46.942Z,78.76
2022-08-22T00:03:15.561Z,79.68
2022-08-22T00:03:41.626Z,79.76
2022-08-22T00:06:16.207Z,79.58
2022-08-22T00:08:56.912Z,79.50
2022-08-22T00:11:34.826Z,79.52
2022-08-22T00:14:11.859Z,79.69
2022-08-22T00:16:51.367Z,79.57
2022-08-22T00:19:30.547Z,79.61
2022-08-22T00:22:05.864Z,79.49
2022-08-22T00:24:43.163Z,79.50
2022-08-22T00:27:16.837Z,79.33
2022-08-22T00:29:52.447Z,79.26
2022-08-22T00:32:28.807Z,79.19
2022-08-22T00:35:03.240Z,79.47
2022-08-22T00:37:36.927Z,79.20
2022-08-22T00:40:18.660Z,79.27
2022-08-22T00:43:12.407Z,79.04
2022-08-22T00:46:08.897Z,79.44
2022-08-22T00:48:58.301Z,79.62
2022-08-22T00:51:46.173Z,79.39
2022-08-22T00:54:25.820Z,79.35
2022-08-22T00:57:14.856Z,79.38
2022-08-22T01:00:07.002Z,79.65
2022-08-22T01:02:52.705Z,79.57
2022-08-22T01:05:44.610Z,79.85
2022-08-22T01:08:33.946Z,79.99
2022-08-22T01:11:13.190Z,80.36
2022-08-22T01:13:58.824Z,80.24
2022-08-22T01:16:44.083Z,80.37
2022-08-22T01:20:00.566Z,80.35
2022-08-22T01:22:57.909Z,80.72
2022-08-22T01:26:09.895Z,80.59
2022-08-22T01:29:17.510Z,80.58
2022-08-22T01:32:24.628Z,80.56
2022-08-22T01:35:37.733Z,80.77
2022-08-22T01:38:34.982Z,80.46
2022-08-22T01:41:30.458Z,80.60
2022-08-22T01:44:25.234Z,80.44
2022-08-22T01:47:02.278Z,80.40
2022-08-22T01:49:44.217Z,80.22
2022-08-22T01:52:20.752Z,80.18
2022-08-22T01:54:56.028Z,80.37
2022-08-22T01:57:26.056Z,80.54
2022-08-22T01:59:58.636Z,80.54
2022-08-22T02:02:46.474Z,80.74
2022-08-22T02:05:27.833Z,80.11
2022-08-22T02:08:03.613Z,80.23
2022-08-22T02:10:56.331Z,80.37
2022-08-22T02:13:36.041Z,80.38
2022-08-22T02:16:12.572Z,80.07
2022-08-22T02:18:55.939Z,80.04
2022-08-22T02:21:32.570Z,79.89
2022-08-22T02:24:15.798Z,79.64
2022-08-22T02:26:51.457Z,79.87
2022-08-22T02:29:30.818Z,79.52
2022-08-22T02:32:04.253Z,79.40
2022-08-22T02:34:41.888Z,79.40
2022-08-22T02:37:16.934Z,79.17
2022-08-22T02:39:57.443Z,79.07
2022-08-22T02:42:31.221Z,79.06
2022-08-22T02:45:07.104Z,78.80
2022-08-22T02:47:46.752Z,78.93
2022-08-22T02:50:24.824Z,78.93
2022-08-22T02:52:59.105Z,79.15
2022-08-22T02:55:47.441Z,78.78
2022-08-22T02:58:24.636Z,78.70
2022-08-22T03:01:15.151Z,78.77
2022-08-22T03:03:47.527Z,78.63
2022-08-22T03:06:33.144Z,78.77
2022-08-22T03:09:08.968Z,78.54
2022-08-22T03:11:43.013Z,78.69
2022-08-22T03:14:19.465Z,78.66
2022-08-22T03:16:56.490Z,78.78
2022-08-22T03:19:42.571Z,78.43
2022-08-22T03:22:16.950Z,78.36
2022-08-22T03:24:53.518Z,78.26
2022-08-22T03:27:32.444Z,78.19
2022-08-22T03:30:07.881Z,78.31
2022-08-22T03:32:52.872Z,77.91
2022-08-22T03:35:30.739Z,77.88
2022-08-22T03:38:19.931Z,77.93
2022-08-22T03:41:01.561Z,78.23
2022-08-22T03:43:52.891Z,78.36
2022-08-22T03:46:53.874Z,78.20
2022-08-22T03:50:06.110Z,78.06
2022-08-22T03:53:19.319Z,78.09
2022-08-22T03:56:29.593Z,77.67
2022-08-22T03:59:26.719Z,77.72
2022-08-22T04:02:43.025Z,77.81
2022-08-22T04:05:56.542Z,77.93
2022-08-22T04:08:53.499Z,77.97
2022-08-22T04:11:47.178Z,77.98
2022-08-22T04:14:40.844Z,78.11
2022-08-22T04:17:49.900Z,78.14
2022-08-22T04:20:42.300Z,78.25
2022-08-22T04:23:34.605Z,78.24
2022-08-22T04:26:12.721Z,78.12
2022-08-22T04:28:49.174Z,78.19
2022-08-22T04:31:27.981Z,78.02
2022-08-22T04:34:02.555Z,78.10
2022-08-22T04:36:36.138Z,77.97
2022-08-22T04:39:10.909Z,77.61
2022-08-22T04:41:48.371Z,78.00
2022-08-22T04:44:23.486Z,78.16
2022-08-22T04:47:00.805Z,78.11
2022-08-22T04:49:36.782Z,77.92
2022-08-22T04:52:12.957Z,78.15
2022-08-22T04:54:57.012Z,77.89
2022-08-22T04:57:32.688Z,77.77
2022-08-22T05:00:02.658Z,77.76
2022-08-22T05:02:32.456Z,77.67
2022-08-22T05:05:04.956Z,77.61
2022-08-22T05:07:46.363Z,77.70
2022-08-22T05:10:21.136Z,77.67
2022-08-22T05:12:55.637Z,77.66
2022-08-22T05:15:27.450Z,77.77
2022-08-22T05:18:02.227Z,77.60
2022-08-22T05:20:31.621Z,77.75
2022-08-22T05:23:17.529Z,77.48
2022-08-22T05:25:50.762Z,77.43
2022-08-22T05:28:34.915Z,77.41
2022-08-22T05:31:08.149Z,77.48
2022-08-22T05:33:42.345Z,77.41
2022-08-22T05:36:14.210Z,77.25
2022-08-22T05:38:48.479Z,77.44
2022-08-22T05:41:20.703Z,77.37
2022-08-22T05:43:49.662Z,77.81
2022-08-22T05:46:22.038Z,77.37
2022-08-22T05:49:00.460Z,77.34
2022-08-22T05:51:38.126Z,77.00
2022-08-22T05:54:17.490Z,77.17
2022-08-22T05:56:50.499Z,76.84
2022-08-22T05:59:25.983Z,76.86
2022-08-22T06:02:06.593Z,76.65
2022-08-22T06:04:47.299Z,76.03
2022-08-22T06:07:20.263Z,75.85
2022-08-22T06:10:20.534Z,76.02
2022-08-22T06:12:58.272Z,76.24
2022-08-22T06:15:35.607Z,76.28
2022-08-22T06:18:10.438Z,76.13
2022-08-22T06:20:45.257Z,76.11
2022-08-22T06:23:18.408Z,75.83
2022-08-22T06:25:48.973Z,75.91
2022-08-22T06:28:26.702Z,75.70
2022-08-22T06:30:57.750Z,75.79
2022-08-22T06:33:28.914Z,75.95
2022-08-22T06:36:21.109Z,76.30
2022-08-22T06:38:58.842Z,76.40
2022-08-22T06:41:31.728Z,76.31
2022-08-22T06:44:01.613Z,76.07
2022-08-22T06:46:33.265Z,76.13
2022-08-22T06:49:04.524Z,76.68
2022-08-22T06:51:37.555Z,76.45
2022-08-22T06:54:10.225Z,77.00
2022-08-22T06:56:43.347Z,76.79
2022-08-22T06:59:16.433Z,77.07
2022-08-22T07:01:52.259Z,77.32
2022-08-22T07:04:26.646Z,77.51
2022-08-22T07:06:58.308Z,77.84
2022-08-22T07:09:29.577Z,78.00
2022-08-22T07:12:02.249Z,78.09
2022-08-22T07:14:33.844Z,77.93
2022-08-22T07:17:04.906Z,77.91
2022-08-22T07:19:38.091Z,77.64
2022-08-22T07:22:15.657Z,77.78
2022-08-22T07:24:51.703Z,77.56
2022-08-22T07:27:32.331Z,77.81
2022-08-22T07:30:10.063Z,77.74
2022-08-22T07:32:47.450Z,77.98
2022-08-22T07:35:20.098Z,77.51
2022-08-22T07:38:00.166Z,78.17
2022-08-22T07:40:35.139Z,77.90
2022-08-22T07:43:13.505Z,78.16
2022-08-22T07:45:50.997Z,78.31
2022-08-22T07:48:26.210Z,78.22
2022-08-22T07:51:08.464Z,78.26
2022-08-22T07:53:42.779Z,78.46
2022-08-22T07:56:16.665Z,78.39
2022-08-22T07:58:49.111Z,78.47
2022-08-22T08:01:21.948Z,78.66
2022-08-22T08:03:55.212Z,78.62
2022-08-22T08:06:24.871Z,79.20
2022-08-22T08:08:56.519Z,79.22
2022-08-22T08:11:28.185Z,79.32
2022-08-22T08:14:04.281Z,79.26
2022-08-22T08:16:41.244Z,79.10
2022-08-22T08:19:12.194Z,79.17
2022-08-22T08:21:49.435Z,79.23
2022-08-22T08:24:24.893Z,79.17
2022-08-22T08:27:13.927Z,79.34
2022-08-22T08:29:46.779Z,79.31
2022-08-22T08:32:15.691Z,78.87
2022-08-22T08:34:45.325Z,78.51
2022-08-22T08:37:22.609Z,78.44
2022-08-22T08:39:57.138Z,78.86
2022-08-22T08:43:12.976Z,79.46
2022-08-22T08:45:59.332Z,79.84
2022-08-22T08:49:06.491Z,79.35
2022-08-22T08:52:02.351Z,79.62
2022-08-22T08:54:59.538Z,79.51
2022-08-22T08:57:50.646Z,79.88
2022-08-22T09:00:28.994Z,80.21
2022-08-22T09:03:09.392Z,80.21
2022-08-22T09:06:08.837Z,80.60
2022-08-22T09:09:04.908Z,80.31
2022-08-22T09:12:16.597Z,80.13
2022-08-22T09:15:11.929Z,80.32
2022-08-22T09:18:26.941Z,80.23
2022-08-22T09:21:39.489Z,80.55
2022-08-22T09:24:30.055Z,80.70
2022-08-22T09:27:03.000Z,80.60
2022-08-22T09:29:54.598Z,80.04
2022-08-22T09:32:36.143Z,80.31
2022-08-22T09:35:12.520Z,80.09
2022-08-22T09:37:59.113Z,80.01
2022-08-22T09:40:36.535Z,79.84
2022-08-22T09:43:11.077Z,79.50
2022-08-22T09:45:47.401Z,79.58
2022-08-22T09:48:35.718Z,79.35
2022-08-22T09:51:31.803Z,79.23
2022-08-22T09:54:14.719Z,79.62
2022-08-22T09:56:55.766Z,79.49
2022-08-22T09:59:42.652Z,79.77
2022-08-22T10:02:26.928Z,79.70
2022-08-22T10:05:07.697Z,79.25
2022-08-22T10:07:52.890Z,78.58
2022-08-22T10:10:46.424Z,78.52
2022-08-22T10:13:26.577Z,78.13
2022-08-22T10:16:05.743Z,78.12
2022-08-22T10:18:44.072Z,77.86
2022-08-22T10:21:32.062Z,77.57
2022-08-22T10:24:11.830Z,77.67
2022-08-22T10:26:47.602Z,77.61
2022-08-22T10:29:52.012Z,77.71
2022-08-22T10:32:31.816Z,77.92
2022-08-22T10:35:08.359Z,78.22
2022-08-22T10:37:46.163Z,78.65
2022-08-22T10:40:21.419Z,78.82
2022-08-22T10:42:54.850Z,79.21
2022-08-22T10:45:36.814Z,79.45
2022-08-22T10:48:32.624Z,79.49
2022-08-22T10:51:12.075Z,79.24
2022-08-22T10:53:57.043Z,79.07
2022-08-22T10:56:30.685Z,79.00
2022-08-22T10:59:07.023Z,79.14
2022-08-22T11:01:57.206Z,79.07
2022-08-22T11:04:45.016Z,79.05
2022-08-22T11:07:39.432Z,79.26
2022-08-22T11:10:22.443Z,79.24
2022-08-22T11:13:06.051Z,79.54
2022-08-22T11:16:06.803Z,79.46
2022-08-22T11:19:15.371Z,79.55
2022-08-22T11:22:10.223Z,79.65
2022-08-22T11:25:05.020Z,79.50
2022-08-22T11:27:45.599Z,79.50
2022-08-22T11:30:18.775Z,79.59
2022-08-22T11:33:16.177Z,79.46
2022-08-22T11:35:51.643Z,79.36
2022-08-22T11:38:32.664Z,79.26
2022-08-22T11:41:06.685Z,79.19
2022-08-22T11:43:52.643Z,78.43
2022-08-22T11:46:25.901Z,78.20
2022-08-22T11:49:06.414Z,77.80
2022-08-22T11:51:57.607Z,77.45
2022-08-22T11:54:42.292Z,77.80
2022-08-22T11:57:15.822Z,77.68
2022-08-22T12:00:05.833Z,77.48
2022-08-22T12:02:47.603Z,76.99
2022-08-22T12:05:26.142Z,76.34
2022-08-22T12:08:03.360Z,76.73
2022-08-22T12:10:37.144Z,76.77
2022-08-22T12:13:09.759Z,76.59
2022-08-22T12:15:48.994Z,76.57
2022-08-22T12:18:38.974Z,76.10
2022-08-22T12:21:44.782Z,75.61
2022-08-22T12:24:36.720Z,74.77
2022-08-22T12:27:40.572Z,74.52
2022-08-22T12:30:23.491Z,75.48
2022-08-22T12:33:22.046Z,74.61
2022-08-22T12:36:01.113Z,74.53
2022-08-22T12:38:50.193Z,75.75
2022-08-22T12:41:46.619Z,75.30
2022-08-22T12:44:37.594Z,75.23
2022-08-22T12:47:25.645Z,75.29
2022-08-22T12:50:15.850Z,75.49
2022-08-22T12:53:03.478Z,75.42
2022-08-22T12:56:03.348Z,75.35
2022-08-22T12:58:51.356Z,75.52
2022-08-22T13:01:23.418Z,75.72
2022-08-22T13:04:12.833Z,74.91
2022-08-22T13:07:11.345Z,74.95
2022-08-22T13:09:43.274Z,74.58
2022-08-22T13:12:24.581Z,75.01
2022-08-22T13:14:56.785Z,74.85
2022-08-22T13:17:26.336Z,75.20
2022-08-22T13:20:03.072Z,74.90
2022-08-22T13:22:36.140Z,75.50
2022-08-22T13:25:09.889Z,75.52
2022-08-22T13:27:51.067Z,75.67
2022-08-22T13:30:22.450Z,75.99
2022-08-22T13:32:54.584Z,76.12
2022-08-22T13:35:32.530Z,76.03
2022-08-22T13:38:08.061Z,75.96
2022-08-22T13:40:45.412Z,76.37
2022-08-22T13:43:21.836Z,76.70
2022-08-22T13:45:55.793Z,76.93
2022-08-22T13:48:28.895Z,76.73
2022-08-22T13:51:05.799Z,76.61
2022-08-22T13:53:45.217Z,76.69
2022-08-22T13:56:21.834Z,76.76
2022-08-22T13:58:54.972Z,76.36
2022-08-22T14:01:35.343Z,76.19
2022-08-22T14:04:17.745Z,76.28
2022-08-22T14:07:23.785Z,75.71
2022-08-22T14:09:57.695Z,75.92
2022-08-22T14:12:33.535Z,75.96
2022-08-22T14:15:23.707Z,75.64
2022-08-22T14:18:03.411Z,74.84
2022-08-22T14:20:33.943Z,74.99
2022-08-22T14:23:08.961Z,74.45
2022-08-22T14:25:39.198Z,74.85
2022-08-22T14:28:11.142Z,74.54
2022-08-22T14:30:56.487Z,74.47
2022-08-22T14:33:33.199Z,73.22
2022-08-22T14:36:05.772Z,72.65
2022-08-22T14:38:46.388Z,73.01
2022-08-22T14:41:52.488Z,71.54
2022-08-22T14:44:23.607Z,71.63
2022-08-22T14:46:56.741Z,70.81
2022-08-22T14:49:30.193Z,71.14
2022-08-22T14:52:04.001Z,69.78
2022-08-22T14:54:35.083Z,70.64
2022-08-22T14:57:12.720Z,70.42
2022-08-22T14:59:52.527Z,71.16
2022-08-22T15:02:27.851Z,71.62
2022-08-22T15:04:57.425Z,72.20
2022-08-22T15:07:29.714Z,72.81
2022-08-22T15:10:06.154Z,73.15
2022-08-22T15:12:38.762Z,73.62
2022-08-22T15:15:13.913Z,73.94
2022-08-22T15:17:44.817Z,74.62
2022-08-22T15:20:27.708Z,74.90
2022-08-22T15:23:00.392Z,75.24
2022-08-22T15:25:34.281Z,75.79
2022-08-22T15:28:13.937Z,75.74
2022-08-22T15:30:48.475Z,76.37
2022-08-22T15:33:26.288Z,76.28
2022-08-22T15:36:12.278Z,76.84
2022-08-22T15:38:48.419Z,76.71
2022-08-22T15:41:45.084Z,76.85
2022-08-22T15:44:32.463Z,76.13
2022-08-22T15:47:28.480Z,75.73
2022-08-22T15:50:05.260Z,75.74
2022-08-22T15:52:59.806Z,75.72
2022-08-22T15:55:34.422Z,75.86
2022-08-22T15:58:08.179Z,75.43
2022-08-22T16:00:43.358Z,75.46
2022-08-22T16:03:15.940Z,75.31
2022-08-22T16:05:55.451Z,75.31
2022-08-22T16:08:28.450Z,75.19
2022-08-22T16:11:21.108Z,75.91
2022-08-22T16:14:22.528Z,75.80
2022-08-22T16:17:04.034Z,76.29
2022-08-22T16:19:35.661Z,76.38
2022-08-22T16:22:10.407Z,76.48
2022-08-22T16:25:05.813Z,76.54
2022-08-22T16:27:35.789Z,76.72
2022-08-22T16:30:15.942Z,76.91
2022-08-22T16:32:56.520Z,77.74
2022-08-22T16:36:16.787Z,77.38
2022-08-22T16:38:47.909Z,77.40
2022-08-22T16:41:29.274Z,77.27
2022-08-22T16:44:39.813Z,77.50
2022-08-22T16:47:14.037Z,77.76
2022-08-22T16:49:57.514Z,77.64
2022-08-22T16:53:02.392Z,77.63
2022-08-22T16:55:46.622Z,78.03
2022-08-22T16:58:50.187Z,77.90
2022-08-22T17:01:32.282Z,77.70
2022-08-22T17:04:11.361Z,78.09
2022-08-22T17:07:02.139Z,78.06
2022-08-22T17:09:56.348Z,77.80
2022-08-22T17:12:41.708Z,77.90
2022-08-22T17:15:22.576Z,78.19
2022-08-22T17:18:14.716Z,77.88
2022-08-22T17:20:49.065Z,78.06
2022-08-22T17:23:30.545Z,78.21
2022-08-22T17:26:08.994Z,78.40
2022-08-22T17:28:42.917Z,77.98
2022-08-22T17:31:18.335Z,78.12
2022-08-22T17:34:19.583Z,78.45
2022-08-22T17:36:59.207Z,78.35
2022-08-22T17:39:56.039Z,78.31
2022-08-22T17:42:44.945Z,78.31
2022-08-22T17:45:43.227Z,78.36
2022-08-22T17:48:33.905Z,78.33
2022-08-22T17:51:15.228Z,78.75
2022-08-22T17:54:16.720Z,78.85
2022-08-22T17:57:03.257Z,78.96
2022-08-22T17:59:41.036Z,78.94
2022-08-22T18:02:16.458Z,79.12
2022-08-22T18:04:52.385Z,78.92
2022-08-22T18:07:34.756Z,79.42
2022-08-22T18:10:08.344Z,79.83
2022-08-22T18:12:45.844Z,79.32
2022-08-22T18:15:24.267Z,79.19
2022-08-22T18:17:58.002Z,79.42
2022-08-22T18:20:32.516Z,79.63
2022-08-22T18:23:21.657Z,79.38
2022-08-22T18:26:15.908Z,79.72
2022-08-22T18:28:50.014Z,79.47
2022-08-22T18:31:37.753Z,79.66
2022-08-22T18:34:17.060Z,79.75
2022-08-22T18:36:55.344Z,79.64
2022-08-22T18:39:29.072Z,79.77
2022-08-22T18:42:08.134Z,79.85
2022-08-22T18:44:40.246Z,79.80
2022-08-22T18:47:13.464Z,80.46
2022-08-22T18:49:55.228Z,79.89
2022-08-22T18:52:36.467Z,80.06
2022-08-22T18:55:28.154Z,80.21
2022-08-22T18:58:22.591Z,80.23
2022-08-22T19:01:16.537Z,80.32
2022-08-22T19:04:18.178Z,80.56
2022-08-22T19:07:06.651Z,80.57
2022-08-22T19:10:06.297Z,80.84
2022-08-22T19:12:55.823Z,80.51
2022-08-22T19:15:39.191Z,80.77
2022-08-22T19:18:34.555Z,80.92
2022-08-22T19:21:44.173Z,81.00
2022-08-22T19:24:29.827Z,80.92
2022-08-22T19:27:31.284Z,80.49
2022-08-22T19:30:03.261Z,80.65
2022-08-22T19:33:03.547Z,80.90
2022-08-22T19:35:43.276Z,81.11
2022-08-22T19:38:12.602Z,80.99
2022-08-22T19:40:53.519Z,80.59
2022-08-22T19:43:29.576Z,81.31
2022-08-22T19:46:00.055Z,81.13
2022-08-22T19:48:33.195Z,80.76
2022-08-22T19:51:24.756Z,80.75
2022-08-22T19:54:08.043Z,81.10
2022-08-22T19:56:51.159Z,80.95
2022-08-22T19:59:31.297Z,80.86
2022-08-22T20:02:07.354Z,80.83
2022-08-22T20:05:05.584Z,80.87
2022-08-22T20:07:47.079Z,80.76
2022-08-22T20:10:24.636Z,80.78
2022-08-22T20:13:05.576Z,80.98
2022-08-22T20:16:03.772Z,80.80
2022-08-22T20:19:24.115Z,81.04
2022-08-22T20:22:10.865Z,81.21
2022-08-22T20:25:03.110Z,80.88
2022-08-22T20:27:49.950Z,80.89
2022-08-22T20:30:45.100Z,80.91
2022-08-22T20:33:26.217Z,80.67
2022-08-22T20:35:59.183Z,80.70
2022-08-22T20:38:35.741Z,80.96
2022-08-22T20:41:16.153Z,80.79
2022-08-22T20:43:51.608Z,80.89
2022-08-22T20:46:43.872Z,81.00
2022-08-22T20:49:18.926Z,80.69
2022-08-22T20:52:05.566Z,80.91
2022-08-22T20:54:56.039Z,81.14
2022-08-22T20:57:46.618Z,81.22
2022-08-22T21:00:39.075Z,81.47
2022-08-22T21:03:33.764Z,81.31
2022-08-22T21:06:26.038Z,81.23
2022-08-22T21:09:39.046Z,81.20
2022-08-22T21:12:24.366Z,81.34
2022-08-22T21:15:13.892Z,81.54
2022-08-22T21:18:11.904Z,81.43
2022-08-22T21:21:01.134Z,81.74
2022-08-22T21:23:43.480Z,81.48
2022-08-22T21:26:35.034Z,81.69
2022-08-22T21:29:33.960Z,81.74
2022-08-22T21:32:33.998Z,81.78
2022-08-22T21:35:32.307Z,81.87
2022-08-22T21:38:25.004Z,81.99
2022-08-22T21:41:10.219Z,81.85
2022-08-22T21:43:57.996Z,81.55
2022-08-22T21:46:41.194Z,81.67
2022-08-22T21:49:32.002Z,81.78
2022-08-22T21:52:13.213Z,81.61
2022-08-22T21:55:00.977Z,82.01
2022-08-22T21:57:50.978Z,81.70
2022-08-22T22:00:58.066Z,81.75
2022-08-22T22:03:44.196Z,81.78
2022-08-22T22:06:32.929Z,81.72
2022-08-22T22:09:20.938Z,81.82
2022-08-22T22:12:09.933Z,81.95
2022-08-22T22:14:53.194Z,81.55
2022-08-22T22:17:48.058Z,81.73
2022-08-22T22:20:38.201Z,81.67
2022-08-22T22:23:20.939Z,81.89
2022-08-22T22:26:18.955Z,81.52
2022-08-22T22:29:09.231Z,81.79
2022-08-22T22:31:51.905Z,81.87
2022-08-22T22:34:39.926Z,82.05
2022-08-22T22:37:23.138Z,81.90
2022-08-22T22:40:14.988Z,82.12
2022-08-22T22:42:56.128Z,82.02
2022-08-22T22:45:45.896Z,82.04
2022-08-22T22:48:34.006Z,82.19
2022-08-22T22:51:16.568Z,82.44
2022-08-22T22:54:05.903Z,82.20
2022-08-22T22:56:54.886Z,82.37
2022-08-22T22:59:30.134Z,82.59
2022-08-22T23:02:07.065Z,82.36
2022-08-22T23:04:38.018Z,82.59
2022-08-22T23:07:07.706Z,82.72
2022-08-22T23:09:52.691Z,82.83
2022-08-22T23:12:35.092Z,82.92
2022-08-22T23:15:22.894Z,82.94
2022-08-22T23:18:17.826Z,82.97
2022-08-22T23:21:17.862Z,82.85
2022-08-22T23:24:08.837Z,83.04
2022-08-22T23:26:58.086Z,82.92
2022-08-22T23:29:39.938Z,83.10
2022-08-22T23:32:28.157Z,82.67
2022-08-22T23:35:09.872Z,82.73
2022-08-22T23:37:51.590Z,82.80
2022-08-22T23:40:39.933Z,82.69
2022-08-22T23:43:29.022Z,82.90
2022-08-22T23:46:04.801Z,82.82
2022-08-22T23:48:33.283Z,82.87
2022-08-22T23:51:01.705Z,82.70
2022-08-22T23:53:29.973Z,82.73
2022-08-22T23:55:59.325Z,82.66
2022-08-22T23:58:29.048Z,82.87
